createdAt,value
2019-05-26T00:00:13.334Z,78.75
2019-05-26T00:02:43.667Z,79.26
2019-05-26T00:05:13.552Z,79.32
2019-05-26T00:07:45.641Z,79.25
2019-05-26T00:10:15.309Z,79.72
2019-05-26T00:12:44.761Z,79.02
2019-05-26T00:15:14.574Z,78.84
2019-05-26T00:17:44.078Z,78.89
2019-05-26T00:20:14.836Z,78.96
2019-05-26T00:22:44.304Z,79.08
2019-05-26T00:25:14.474Z,79.07
2019-05-26T00:27:43.932Z,79.26
2019-05-26T00:30:13.973Z,79.37
2019-05-26T00:32:43.446Z,79.63
2019-05-26T00:35:13.378Z,79.98
2019-05-26T00:37:49.870Z,80.77
2019-05-26T00:40:14.807Z,80.67
2019-05-26T00:42:44.360Z,80.75
2019-05-26T00:45:13.961Z,80.81
2019-05-26T00:47:43.466Z,80.89
2019-05-26T00:50:15.007Z,81.53
2019-05-26T00:52:44.491Z,82.28
2019-05-26T00:55:14.732Z,82.62
2019-05-26T00:57:44.211Z,82.29
2019-05-26T01:00:14.040Z,81.57
2019-05-26T01:02:43.785Z,81.61
2019-05-26T01:05:13.958Z,81.58
2019-05-26T01:07:43.613Z,81.54
2019-05-26T01:10:13.433Z,81.95
2019-05-26T01:12:43.566Z,81.78
2019-05-26T01:15:13.442Z,81.94
2019-05-26T01:17:43.190Z,81.66
2019-05-26T01:20:13.362Z,82.21
2019-05-26T01:22:43.094Z,82.33
2019-05-26T01:25:12.748Z,82.37
2019-05-26T01:27:42.698Z,82.04
2019-05-26T01:30:12.516Z,81.89
2019-05-26T01:32:42.156Z,81.66
2019-05-26T01:35:12.880Z,81.45
2019-05-26T01:37:43.387Z,81.08
2019-05-26T01:40:13.298Z,80.83
2019-05-26T01:42:43.164Z,80.68
2019-05-26T01:45:12.717Z,80.74
2019-05-26T01:47:42.489Z,80.50
2019-05-26T01:50:12.208Z,79.97
2019-05-26T01:52:41.765Z,79.01
2019-05-26T01:55:11.281Z,77.55
2019-05-26T01:57:40.791Z,77.27
2019-05-26T02:00:10.666Z,77.19
2019-05-26T02:02:40.231Z,77.52
2019-05-26T02:05:09.761Z,77.77
2019-05-26T02:07:39.268Z,78.40
2019-05-26T02:10:08.811Z,79.25
2019-05-26T02:12:38.624Z,79.61
2019-05-26T02:15:08.570Z,80.28
2019-05-26T02:17:38.521Z,80.91
2019-05-26T02:20:09.206Z,81.60
2019-05-26T02:22:39.032Z,81.85
2019-05-26T02:25:09.439Z,82.81
2019-05-26T02:27:39.242Z,83.27
2019-05-26T02:30:10.123Z,83.41
2019-05-26T02:32:39.666Z,84.23
2019-05-26T02:35:09.574Z,84.17
2019-05-26T02:37:39.062Z,85.00
2019-05-26T02:40:09.532Z,85.17
2019-05-26T02:42:39.251Z,85.28
2019-05-26T02:45:12.158Z,85.40
2019-05-26T02:47:41.636Z,86.02
2019-05-26T02:50:11.325Z,85.79
2019-05-26T02:52:41.205Z,85.69
2019-05-26T02:55:11.396Z,85.85
2019-05-26T02:57:41.243Z,86.51
2019-05-26T03:00:13.981Z,86.77
2019-05-26T03:02:43.758Z,86.72
2019-05-26T03:05:13.862Z,86.57
2019-05-26T03:07:43.847Z,87.00
2019-05-26T03:10:16.439Z,87.15
2019-05-26T03:12:47.457Z,87.50
2019-05-26T03:15:16.982Z,87.43
2019-05-26T03:17:48.113Z,87.19
2019-05-26T03:20:18.017Z,87.00
2019-05-26T03:22:49.310Z,87.12
2019-05-26T03:25:18.736Z,87.42
2019-05-26T03:27:48.541Z,87.33
2019-05-26T03:30:19.180Z,87.13
2019-05-26T03:32:49.200Z,86.99
2019-05-26T03:35:18.895Z,86.96
2019-05-26T03:37:48.353Z,87.32
2019-05-26T03:40:17.905Z,87.47
2019-05-26T03:42:47.389Z,87.57
2019-05-26T03:45:41.445Z,87.41
2019-05-26T03:48:11.401Z,87.33
2019-05-26T03:50:40.893Z,87.36
2019-05-26T03:56:22.850Z,88.20
2019-05-26T03:58:52.503Z,88.33
2019-05-26T04:01:22.146Z,87.92
2019-05-26T04:03:51.637Z,87.57
2019-05-26T04:06:21.382Z,86.56
2019-05-26T04:08:50.875Z,85.94
2019-05-26T04:11:20.357Z,85.48
2019-05-26T04:13:49.862Z,85.19
2019-05-26T04:16:19.373Z,85.03
2019-05-26T04:18:48.863Z,84.97
2019-05-26T04:21:18.343Z,84.87
2019-05-26T04:23:47.829Z,85.11
2019-05-26T04:26:17.296Z,85.56
2019-05-26T04:28:46.838Z,85.50
2019-05-26T04:31:20.111Z,85.40
2019-05-26T04:33:49.583Z,85.29
2019-05-26T04:36:19.069Z,85.31
2019-05-26T04:38:48.577Z,85.09
2019-05-26T04:41:18.076Z,84.71
2019-05-26T04:43:47.553Z,84.40
2019-05-26T04:46:17.320Z,84.26
2019-05-26T04:48:46.947Z,83.98
2019-05-26T04:51:16.464Z,83.69
2019-05-26T04:53:45.921Z,83.28
2019-05-26T04:56:15.401Z,82.38
2019-05-26T04:58:44.923Z,81.22
2019-05-26T05:01:30.705Z,79.97
2019-05-26T05:04:06.784Z,79.51
2019-05-26T05:06:42.295Z,78.50
2019-05-26T05:09:16.837Z,77.69
2019-05-26T05:12:08.778Z,76.59
2019-05-26T05:14:38.268Z,76.37
2019-05-26T05:17:07.748Z,76.07
2019-05-26T05:19:37.232Z,76.13
2019-05-26T05:22:06.710Z,75.91
2019-05-26T05:24:36.187Z,75.66
2019-05-26T05:27:05.668Z,75.28
2019-05-26T05:29:35.131Z,74.42
2019-05-26T05:32:04.780Z,72.29
2019-05-26T05:34:34.246Z,71.20
2019-05-26T05:37:03.741Z,66.42
2019-05-26T05:39:33.222Z,62.73
2019-05-26T05:42:02.698Z,59.35
2019-05-26T05:44:32.175Z,55.78
2019-05-26T05:47:01.665Z,54.54
2019-05-26T05:49:31.140Z,53.47
2019-05-26T05:52:00.608Z,52.72
2019-05-26T05:54:30.070Z,54.19
2019-05-26T05:56:59.548Z,51.39
2019-05-26T05:59:29.033Z,49.78
2019-05-26T06:01:58.515Z,48.13
2019-05-26T06:04:28.358Z,46.04
2019-05-26T06:06:57.834Z,44.22
2019-05-26T06:09:27.567Z,45.60
2019-05-26T06:11:57.413Z,41.49
2019-05-26T06:14:26.895Z,40.78
2019-05-26T06:16:56.374Z,42.33
2019-05-26T06:19:25.865Z,39.45
2019-05-26T06:21:55.401Z,40.37
2019-05-26T06:24:24.866Z,43.70
2019-05-26T06:26:54.356Z,46.20
2019-05-26T06:29:23.822Z,44.56
2019-05-26T06:31:53.542Z,41.57
2019-05-26T06:34:23.329Z,39.35
2019-05-26T06:36:53.126Z,37.35
2019-05-26T06:39:22.580Z,37.50
2019-05-26T06:41:52.077Z,36.63
2019-05-26T06:44:21.585Z,37.53
2019-05-26T06:46:51.085Z,36.88
2019-05-26T06:49:20.611Z,35.31
2019-05-26T06:51:50.063Z,34.16
2019-05-26T06:54:19.673Z,33.73
2019-05-26T06:56:49.499Z,34.39
2019-05-26T06:59:19.043Z,37.14
2019-05-26T07:01:48.653Z,36.83
2019-05-26T07:04:18.438Z,34.50
2019-05-26T07:06:47.903Z,36.17
2019-05-26T07:09:17.763Z,34.13
2019-05-26T07:11:57.005Z,34.11
2019-05-26T07:14:18.776Z,33.21
2019-05-26T07:16:48.303Z,32.87
2019-05-26T07:19:18.040Z,33.90
2019-05-26T07:21:47.501Z,33.62
2019-05-26T07:24:16.957Z,36.52
2019-05-26T07:26:46.414Z,33.53
2019-05-26T07:29:16.182Z,32.08
2019-05-26T07:31:45.652Z,32.75
2019-05-26T07:34:15.506Z,31.85
2019-05-26T07:36:44.951Z,33.58
2019-05-26T07:39:14.430Z,32.42
2019-05-26T07:41:43.877Z,32.39
2019-05-26T07:44:13.330Z,30.81
2019-05-26T07:46:42.790Z,30.28
2019-05-26T07:49:12.539Z,30.50
2019-05-26T07:51:42.267Z,29.73
2019-05-26T07:54:25.266Z,29.73
2019-05-26T07:56:43.238Z,30.52
2019-05-26T07:59:13.126Z,28.58
2019-05-26T08:01:42.661Z,28.30
2019-05-26T08:04:12.134Z,30.32
2019-05-26T08:06:41.774Z,30.11
2019-05-26T08:09:11.253Z,31.50
2019-05-26T08:11:40.721Z,29.31
2019-05-26T08:14:10.189Z,31.50
2019-05-26T08:16:39.649Z,31.39
2019-05-26T08:19:09.161Z,29.97
2019-05-26T08:21:38.612Z,31.05
2019-05-26T08:24:08.106Z,30.32
2019-05-26T08:26:37.581Z,30.31
2019-05-26T08:29:07.457Z,29.67
2019-05-26T08:31:37.040Z,31.48
2019-05-26T08:34:06.492Z,31.78
2019-05-26T08:36:35.987Z,29.84
2019-05-26T08:39:07.614Z,30.17
2019-05-26T08:41:37.367Z,32.35
2019-05-26T08:44:06.896Z,30.24
2019-05-26T08:46:36.351Z,33.84
2019-05-26T08:49:06.027Z,34.83
2019-05-26T08:51:35.482Z,32.86
2019-05-26T08:54:05.385Z,33.69
2019-05-26T08:56:34.835Z,32.14
2019-05-26T08:59:04.364Z,29.60
2019-05-26T09:01:33.814Z,30.96
2019-05-26T09:04:03.296Z,30.82
2019-05-26T09:06:32.741Z,29.88
2019-05-26T09:09:02.199Z,32.03
2019-05-26T09:11:31.966Z,30.25
2019-05-26T09:14:01.446Z,29.59
2019-05-26T09:16:30.904Z,30.68
2019-05-26T09:19:00.633Z,28.63
2019-05-26T09:21:30.076Z,27.75
2019-05-26T09:23:59.911Z,29.28
2019-05-26T09:26:29.361Z,28.50
2019-05-26T09:28:59.115Z,27.29
2019-05-26T09:31:28.576Z,29.67
2019-05-26T09:33:58.202Z,30.60
2019-05-26T09:36:27.936Z,29.03
2019-05-26T09:38:57.429Z,26.94
2019-05-26T09:41:26.902Z,28.54
2019-05-26T09:43:56.685Z,30.25
2019-05-26T09:46:26.083Z,30.33
2019-05-26T09:48:55.543Z,30.85
2019-05-26T09:51:25.281Z,30.60
2019-05-26T09:54:01.772Z,29.24
2019-05-26T09:56:25.910Z,30.06
2019-05-26T09:58:55.929Z,31.03
2019-05-26T10:01:25.564Z,31.94
2019-05-26T10:03:55.109Z,30.83
2019-05-26T10:06:24.509Z,33.08
2019-05-26T10:08:53.970Z,29.97
2019-05-26T10:11:23.429Z,28.78
2019-05-26T10:13:52.899Z,27.73
2019-05-26T10:16:22.389Z,29.49
2019-05-26T10:18:51.824Z,27.72
2019-05-26T10:21:21.303Z,27.86
2019-05-26T10:23:53.027Z,26.46
2019-05-26T10:26:21.978Z,28.60
2019-05-26T10:28:51.378Z,27.90
2019-05-26T10:31:21.184Z,27.38
2019-05-26T10:33:51.897Z,27.40
2019-05-26T10:36:21.374Z,26.42
2019-05-26T10:38:50.819Z,24.82
2019-05-26T10:41:20.350Z,26.57
2019-05-26T10:43:49.805Z,27.17
2019-05-26T10:46:19.547Z,28.45
2019-05-26T10:48:49.025Z,27.73
2019-05-26T10:51:18.522Z,28.99
2019-05-26T10:53:48.114Z,27.71
2019-05-26T10:56:17.838Z,27.37
2019-05-26T10:58:47.308Z,29.28
2019-05-26T11:01:16.775Z,28.58
2019-05-26T11:03:46.240Z,29.41
2019-05-26T11:06:15.951Z,26.55
2019-05-26T11:08:45.403Z,27.46
2019-05-26T11:11:14.862Z,27.60
2019-05-26T11:13:44.611Z,26.56
2019-05-26T11:16:14.139Z,25.72
2019-05-26T11:18:43.623Z,26.91
2019-05-26T11:21:13.156Z,24.82
2019-05-26T11:23:43.251Z,24.92
2019-05-26T11:26:12.728Z,26.02
2019-05-26T11:28:42.197Z,26.20
2019-05-26T11:31:11.645Z,27.52
2019-05-26T11:33:41.116Z,27.09
2019-05-26T11:36:10.579Z,26.30
2019-05-26T11:38:40.186Z,25.93
2019-05-26T11:41:09.675Z,26.53
2019-05-26T11:43:39.145Z,28.89
2019-05-26T11:46:08.597Z,27.85
2019-05-26T11:48:39.350Z,28.85
2019-05-26T11:51:09.151Z,26.94
2019-05-26T11:53:38.756Z,24.43
2019-05-26T11:56:08.176Z,25.07
2019-05-26T11:58:37.793Z,26.20
2019-05-26T12:01:07.249Z,25.42
2019-05-26T12:03:36.696Z,25.19
2019-05-26T12:06:06.154Z,26.01
2019-05-26T12:08:36.007Z,27.63
2019-05-26T12:11:05.706Z,26.99
2019-05-26T12:13:36.724Z,28.06
2019-05-26T12:16:06.317Z,29.18
2019-05-26T12:18:35.949Z,28.70
2019-05-26T12:21:05.585Z,28.67
2019-05-26T12:23:35.061Z,30.13
2019-05-26T12:26:04.877Z,29.42
2019-05-26T12:28:34.607Z,28.44
2019-05-26T12:31:04.417Z,28.89
2019-05-26T12:33:33.874Z,29.84
2019-05-26T12:36:03.326Z,29.16
2019-05-26T12:38:34.476Z,29.06
2019-05-26T12:41:04.059Z,28.73
2019-05-26T12:43:33.516Z,30.80
2019-05-26T12:46:02.983Z,28.98
2019-05-26T12:48:32.708Z,29.70
2019-05-26T12:51:02.153Z,30.83
2019-05-26T12:53:31.621Z,31.92
2019-05-26T12:56:01.441Z,30.83
2019-05-26T12:58:30.907Z,32.11
2019-05-26T13:01:00.689Z,31.06
2019-05-26T13:03:30.148Z,28.93
2019-05-26T13:05:59.688Z,29.19
2019-05-26T13:08:29.572Z,29.35
2019-05-26T13:10:59.404Z,29.18
2019-05-26T13:13:28.870Z,29.55
2019-05-26T13:15:58.320Z,30.11
2019-05-26T13:18:27.783Z,30.04
2019-05-26T13:20:57.234Z,28.98
2019-05-26T13:23:26.693Z,28.08
2019-05-26T13:25:56.507Z,28.08
2019-05-26T13:28:25.967Z,28.91
2019-05-26T13:30:57.545Z,29.04
2019-05-26T13:33:27.668Z,29.61
2019-05-26T13:35:57.156Z,30.37
2019-05-26T13:38:26.656Z,28.78
2019-05-26T13:40:56.198Z,29.96
2019-05-26T13:43:25.670Z,28.42
2019-05-26T13:45:55.108Z,29.77
2019-05-26T13:48:24.634Z,29.83
2019-05-26T13:50:54.387Z,30.92
2019-05-26T13:53:23.919Z,29.47
2019-05-26T13:55:53.414Z,28.68
2019-05-26T13:58:23.202Z,30.04
2019-05-26T14:00:52.672Z,30.99
2019-05-26T14:03:24.343Z,30.32
2019-05-26T14:05:53.570Z,29.80
2019-05-26T14:08:23.583Z,28.51
2019-05-26T14:10:53.500Z,29.61
2019-05-26T14:13:22.969Z,31.09
2019-05-26T14:15:54.614Z,32.52
2019-05-26T14:18:24.704Z,30.43
2019-05-26T14:20:54.152Z,30.48
2019-05-26T14:23:23.610Z,30.98
2019-05-26T14:25:53.130Z,30.02
2019-05-26T14:28:22.655Z,31.21
2019-05-26T14:30:52.596Z,31.40
2019-05-26T14:33:22.077Z,29.38
2019-05-26T14:35:51.698Z,31.19
2019-05-26T14:38:21.161Z,31.83
2019-05-26T14:40:50.911Z,31.95
2019-05-26T14:43:20.438Z,32.36
2019-05-26T14:45:53.667Z,30.96
2019-05-26T14:48:21.031Z,31.73
2019-05-26T14:50:50.502Z,30.40
2019-05-26T14:53:19.978Z,29.91
2019-05-26T14:55:49.436Z,31.39
2019-05-26T14:58:18.945Z,31.86
2019-05-26T15:00:48.498Z,31.13
2019-05-26T15:03:18.013Z,31.66
2019-05-26T15:05:47.941Z,32.24
2019-05-26T15:08:17.394Z,32.52
2019-05-26T15:10:46.837Z,32.85
2019-05-26T15:13:16.295Z,33.48
2019-05-26T15:15:45.997Z,32.53
2019-05-26T15:18:15.449Z,31.04
2019-05-26T15:20:44.924Z,31.89
2019-05-26T15:23:14.509Z,32.03
2019-05-26T15:25:44.017Z,32.38
2019-05-26T15:28:13.474Z,33.78
2019-05-26T15:30:43.687Z,33.02
2019-05-26T15:33:14.392Z,33.21
2019-05-26T15:35:45.081Z,33.21
2019-05-26T15:38:15.017Z,33.41
2019-05-26T15:40:44.476Z,34.12
2019-05-26T15:43:13.950Z,35.47
2019-05-26T15:45:43.415Z,35.08
2019-05-26T15:48:12.894Z,35.20
2019-05-26T15:50:42.423Z,34.60
2019-05-26T15:53:11.976Z,36.34
2019-05-26T15:55:42.697Z,35.83
2019-05-26T15:58:12.492Z,35.31
2019-05-26T16:00:42.441Z,35.00
2019-05-26T16:03:12.142Z,35.45
2019-05-26T16:05:41.873Z,34.86
2019-05-26T16:08:11.312Z,34.84
2019-05-26T16:10:40.787Z,34.28
2019-05-26T16:13:10.237Z,35.07
2019-05-26T16:15:39.700Z,34.80
2019-05-26T16:18:09.218Z,33.32
2019-05-26T16:20:38.687Z,33.99
2019-05-26T16:23:09.135Z,33.88
2019-05-26T16:25:40.603Z,34.32
2019-05-26T16:28:10.051Z,34.93
2019-05-26T16:30:41.301Z,35.59
2019-05-26T16:33:10.819Z,34.90
2019-05-26T16:35:40.329Z,34.84
2019-05-26T16:38:09.766Z,34.55
2019-05-26T16:40:39.312Z,35.96
2019-05-26T16:43:08.767Z,35.17
2019-05-26T16:45:38.247Z,35.47
2019-05-26T16:48:07.690Z,34.84
2019-05-26T16:50:37.157Z,35.30
2019-05-26T16:53:07.013Z,35.36
2019-05-26T16:55:36.447Z,35.16
2019-05-26T16:58:06.971Z,35.68
2019-05-26T17:00:36.774Z,35.93
2019-05-26T17:03:06.883Z,35.69
2019-05-26T17:05:36.950Z,35.43
2019-05-26T17:08:06.413Z,36.55
2019-05-26T17:10:35.952Z,36.93
2019-05-26T17:13:05.389Z,36.29
2019-05-26T17:15:35.813Z,36.35
2019-05-26T17:18:05.911Z,37.13
2019-05-26T17:20:35.418Z,36.76
2019-05-26T17:23:04.982Z,38.01
2019-05-26T17:25:34.440Z,37.48
2019-05-26T17:28:03.897Z,38.22
2019-05-26T17:30:33.600Z,38.93
2019-05-26T17:33:03.328Z,38.82
2019-05-26T17:35:32.781Z,38.74
2019-05-26T17:38:02.326Z,39.30
2019-05-26T17:40:31.784Z,38.88
2019-05-26T17:43:01.226Z,39.55
2019-05-26T17:45:30.690Z,40.67
2019-05-26T17:48:00.417Z,39.91
2019-05-26T17:50:29.881Z,40.26
2019-05-26T17:52:59.418Z,40.49
2019-05-26T17:55:28.946Z,40.69
2019-05-26T17:57:58.428Z,41.50
2019-05-26T18:00:28.214Z,42.39
2019-05-26T18:02:57.825Z,41.68
2019-05-26T18:05:27.457Z,42.26
2019-05-26T18:07:56.890Z,43.42
2019-05-26T18:10:26.686Z,43.63
2019-05-26T18:12:56.221Z,43.07
2019-05-26T18:15:25.699Z,44.40
2019-05-26T18:17:55.213Z,43.44
2019-05-26T18:20:24.731Z,43.63
2019-05-26T18:22:54.399Z,43.96
2019-05-26T18:25:24.136Z,44.79
2019-05-26T18:27:53.632Z,44.55
2019-05-26T18:30:23.561Z,44.99
2019-05-26T18:32:53.109Z,45.81
2019-05-26T18:35:22.553Z,46.29
2019-05-26T18:37:53.265Z,47.58
2019-05-26T18:40:22.739Z,47.29
2019-05-26T18:42:52.273Z,48.54
2019-05-26T18:45:21.988Z,48.73
2019-05-26T18:48:02.411Z,48.34
2019-05-26T18:50:22.590Z,49.47
2019-05-26T18:52:52.075Z,50.02
2019-05-26T18:55:21.527Z,50.61
2019-05-26T18:57:51.270Z,52.06
2019-05-26T19:00:22.127Z,52.15
2019-05-26T19:02:51.806Z,52.81
2019-05-26T19:05:32.815Z,53.56
2019-05-26T19:07:52.645Z,53.76
2019-05-26T19:10:22.106Z,54.42
2019-05-26T19:12:51.596Z,55.23
2019-05-26T19:15:21.148Z,56.15
2019-05-26T19:17:50.917Z,56.71
2019-05-26T19:20:20.359Z,56.68
2019-05-26T19:22:53.163Z,56.86
2019-05-26T19:25:21.148Z,57.42
2019-05-26T19:27:50.619Z,57.98
2019-05-26T19:30:20.556Z,58.60
2019-05-26T19:32:51.998Z,58.61
2019-05-26T19:35:21.420Z,59.29
2019-05-26T19:37:50.909Z,59.68
2019-05-26T19:40:20.531Z,59.71
2019-05-26T19:42:49.992Z,60.31
2019-05-26T19:45:19.457Z,60.31
2019-05-26T19:47:48.927Z,60.43
2019-05-26T19:50:18.396Z,60.54
2019-05-26T19:52:49.923Z,60.90
2019-05-26T19:55:19.087Z,60.94
2019-05-26T19:57:48.839Z,61.18
2019-05-26T20:00:18.781Z,60.95
2019-05-26T20:02:48.334Z,61.66
2019-05-26T20:05:17.972Z,61.00
2019-05-26T20:07:47.445Z,61.37
2019-05-26T20:10:17.061Z,62.11
2019-05-26T20:12:46.546Z,62.78
2019-05-26T20:15:16.431Z,62.65
2019-05-26T20:17:46.253Z,63.06
2019-05-26T20:20:15.930Z,63.24
2019-05-26T20:22:45.810Z,63.80
2019-05-26T20:25:15.442Z,64.60
2019-05-26T20:27:44.923Z,64.77
2019-05-26T20:30:14.607Z,64.69
2019-05-26T20:32:44.584Z,65.14
2019-05-26T20:35:15.111Z,64.63
2019-05-26T20:37:44.734Z,65.15
2019-05-26T20:40:14.626Z,64.98
2019-05-26T20:42:44.091Z,65.92
2019-05-26T20:45:14.203Z,65.96
2019-05-26T20:47:43.679Z,66.24
2019-05-26T20:50:28.124Z,66.56
2019-05-26T20:52:44.889Z,66.76
2019-05-26T20:55:14.686Z,67.27
2019-05-26T20:57:44.158Z,66.33
2019-05-26T21:00:15.053Z,67.07
2019-05-26T21:02:44.909Z,67.43
2019-05-26T21:05:16.476Z,67.76
2019-05-26T21:07:45.952Z,68.04
2019-05-26T21:10:15.916Z,67.71
2019-05-26T21:12:45.424Z,68.07
2019-05-26T21:15:15.633Z,68.35
2019-05-26T21:17:45.099Z,68.96
2019-05-26T21:20:16.007Z,69.50
2019-05-26T21:22:45.440Z,69.50
2019-05-26T21:25:15.637Z,67.38
2019-05-26T21:27:45.117Z,68.51
2019-05-26T21:30:15.330Z,69.05
2019-05-26T21:32:44.792Z,69.06
2019-05-26T21:35:14.854Z,69.21
2019-05-26T21:37:44.310Z,69.76
2019-05-26T21:40:15.098Z,68.47
2019-05-26T21:42:44.567Z,64.28
2019-05-26T21:45:15.405Z,65.83
2019-05-26T21:47:45.546Z,67.15
2019-05-26T21:50:16.187Z,67.07
2019-05-26T21:53:05.326Z,68.30
2019-05-26T21:55:38.812Z,66.95
2019-05-26T21:58:08.362Z,67.17
2019-05-26T22:00:39.501Z,67.41
2019-05-26T22:03:09.126Z,68.19
2019-05-26T22:05:38.580Z,68.64
2019-05-26T22:08:08.026Z,69.74
2019-05-26T22:10:37.871Z,69.57
2019-05-26T22:13:07.313Z,69.38
2019-05-26T22:15:36.846Z,70.32
2019-05-26T22:18:06.288Z,68.49
2019-05-26T22:20:36.155Z,69.02
2019-05-26T22:23:05.607Z,69.50
2019-05-26T22:25:35.060Z,69.92
2019-05-26T22:28:04.496Z,69.89
2019-05-26T22:30:33.970Z,69.34
2019-05-26T22:33:03.407Z,69.99
2019-05-26T22:35:33.107Z,67.83
2019-05-26T22:38:02.567Z,67.68
2019-05-26T22:40:32.064Z,69.41
2019-05-26T22:43:01.513Z,69.25
2019-05-26T22:45:30.978Z,69.96
2019-05-26T22:48:00.431Z,70.13
2019-05-26T22:50:29.903Z,70.14
2019-05-26T22:52:59.476Z,70.40
2019-05-26T22:55:28.981Z,68.08
2019-05-26T22:57:58.494Z,68.54
2019-05-26T23:00:28.012Z,69.32
2019-05-26T23:02:57.519Z,69.24
2019-05-26T23:05:26.929Z,68.02
2019-05-26T23:07:56.401Z,67.38
2019-05-26T23:10:26.298Z,67.71
2019-05-26T23:12:55.753Z,67.84
2019-05-26T23:15:25.624Z,68.36
2019-05-26T23:17:55.072Z,68.02
2019-05-26T23:20:24.553Z,69.00
2019-05-26T23:22:53.990Z,69.80
2019-05-26T23:27:51.775Z,70.81
2019-05-26T23:30:21.404Z,70.70
2019-05-26T23:32:50.858Z,70.75
2019-05-26T23:35:20.347Z,71.33
2019-05-26T23:37:49.796Z,70.51
2019-05-26T23:40:19.509Z,69.58
2019-05-26T23:42:48.969Z,68.78
2019-05-26T23:45:18.453Z,68.82
2019-05-26T23:47:47.918Z,70.12
2019-05-26T23:50:17.374Z,69.34
2019-05-26T23:52:46.843Z,70.58
2019-05-26T23:55:16.302Z,71.39
2019-05-26T23:57:45.755Z,71.50
